Time;durP1;ratioP1;P1;durP2;ratioP2;P2;SDS_P1;SDS_P2;PMS_P1;PMS_P2;Temp;Humidity;BMP_temperature;BMP_pressure;BME280_temperature;BME280_humidity;BME280_pressure;Samples;Min_cycle;Max_cycle;Signal;HPM_P1;HPM_P2
2022/08/23 00:02:55;;;;;;;1.80;0.90;;;26.70;40.80;;;;;;6010306;29;20148;-73
2022/08/23 00:05:56;;;;;;;3.42;1.15;;;26.60;40.70;;;;;;5993833;29;20060;-73
2022/08/23 00:08:58;;;;;;;3.30;1.08;;;26.60;40.80;;;;;;5989864;29;20517;-73
2022/08/23 00:12:14;;;;;;;1.90;1.13;;;26.60;40.90;;;;;;5995441;29;20046;-73
2022/08/23 00:15:19;;;;;;;1.83;0.98;;;26.50;40.90;;;;;;5992739;29;20041;-72
2022/08/23 00:18:21;;;;;;;3.78;0.95;;;26.40;40.90;;;;;;6009335;29;20046;-72
2022/08/23 00:21:22;;;;;;;3.55;0.98;;;26.40;40.90;;;;;;6009457;29;20916;-72
2022/08/23 00:24:24;;;;;;;2.20;0.98;;;26.40;40.80;;;;;;5992712;29;20179;-72
2022/08/23 00:27:25;;;;;;;2.25;1.17;;;26.30;40.90;;;;;;6003215;29;20065;-73
2022/08/23 00:30:27;;;;;;;3.90;1.10;;;26.30;41.00;;;;;;5992882;29;20507;-72
2022/08/23 00:33:28;;;;;;;1.20;0.85;;;26.30;41.20;;;;;;5978944;29;20481;-72
2022/08/23 00:36:29;;;;;;;7.03;1.20;;;26.30;41.30;;;;;;5977846;29;20037;-72
2022/08/23 00:39:31;;;;;;;2.70;1.02;;;26.30;41.60;;;;;;5988158;29;20121;-73
2022/08/23 00:50:14;;;;;;;1.45;0.75;;;26.20;41.80;;;;;;6009552;29;20392;-73
2022/08/23 00:53:24;;;;;;;2.85;1.10;;;26.10;41.70;;;;;;5995538;29;20126;-72
2022/08/23 00:56:29;;;;;;;2.60;0.75;;;26.10;41.80;;;;;;6014193;29;20045;-73
2022/08/23 00:59:31;;;;;;;6.18;0.88;;;26.10;41.90;;;;;;6013833;29;20381;-73
2022/08/23 01:02:32;;;;;;;4.25;0.70;;;26.00;42.00;;;;;;6004088;29;20117;-73
2022/08/23 01:05:45;;;;;;;2.50;1.10;;;26.00;42.10;;;;;;5996633;29;20042;-73
2022/08/23 01:08:52;;;;;;;7.35;1.10;;;26.00;42.30;;;;;;5995866;29;20046;-73
2022/08/23 01:11:56;;;;;;;2.50;1.10;;;26.00;42.10;;;;;;5995452;29;20045;-73
2022/08/23 01:15:08;;;;;;;4.05;1.25;;;26.00;42.00;;;;;;6011214;29;20120;-73
2022/08/23 01:18:13;;;;;;;7.38;1.42;;;26.00;42.10;;;;;;6012209;29;20030;-73
2022/08/23 01:21:36;;;;;;;1.90;1.00;;;25.90;42.30;;;;;;5995492;29;20034;-73
2022/08/23 01:24:39;;;;;;;5.50;1.10;;;25.80;42.30;;;;;;6010937;29;20050;-73
2022/08/23 01:27:40;;;;;;;2.20;1.10;;;25.80;42.20;;;;;;6010032;29;20528;-72
2022/08/23 01:30:45;;;;;;;5.13;1.02;;;25.70;42.00;;;;;;5993896;29;20133;-72
2022/08/23 01:33:54;;;;;;;3.28;1.50;;;25.70;42.00;;;;;;6009834;29;20045;-72
2022/08/23 01:36:57;;;;;;;3.60;1.38;;;25.60;42.10;;;;;;5991947;29;20046;-72
2022/08/23 01:39:59;;;;;;;1.60;0.85;;;25.50;42.20;;;;;;5993666;29;20042;-73
2022/08/23 01:43:00;;;;;;;2.00;1.15;;;25.50;42.40;;;;;;5980288;29;20037;-73
2022/08/23 01:46:11;;;;;;;2.30;1.35;;;25.40;42.60;;;;;;5994179;29;20044;-73
2022/08/23 01:49:13;;;;;;;3.33;1.33;;;25.40;42.80;;;;;;5993513;29;20109;-74
2022/08/23 01:52:16;;;;;;;6.78;1.38;;;25.40;42.70;;;;;;6001043;29;20045;-74
2022/08/23 01:55:17;;;;;;;3.42;0.90;;;25.30;42.90;;;;;;5991019;29;20034;-73
2022/08/23 01:58:19;;;;;;;5.85;1.08;;;25.30;43.10;;;;;;5992953;29;20030;-73
2022/08/23 02:01:20;;;;;;;2.88;1.20;;;25.30;43.50;;;;;;5993073;29;20424;-73
2022/08/23 02:04:21;;;;;;;7.50;1.33;;;25.20;43.80;;;;;;5992068;29;20369;-73
2022/08/23 02:07:27;;;;;;;3.75;1.30;;;25.20;43.70;;;;;;5994660;29;20034;-73
2022/08/23 02:10:29;;;;;;;2.15;1.10;;;25.20;43.60;;;;;;5978488;29;20520;-73
2022/08/23 02:13:30;;;;;;;5.22;1.30;;;25.10;43.60;;;;;;5978466;29;20042;-73
2022/08/23 02:16:36;;;;;;;2.08;1.15;;;25.00;43.70;;;;;;5993430;29;20380;-73
2022/08/23 02:19:38;;;;;;;3.40;1.10;;;25.00;43.70;;;;;;5993772;29;20038;-73
2022/08/23 02:22:39;;;;;;;3.53;1.08;;;24.90;43.70;;;;;;5993411;29;20037;-73
2022/08/23 02:25:41;;;;;;;2.53;1.30;;;24.90;43.80;;;;;;6010941;29;20050;-73
2022/08/23 02:28:43;;;;;;;4.72;1.30;;;24.90;43.80;;;;;;6008421;29;20053;-73
2022/08/23 02:31:45;;;;;;;7.30;1.20;;;24.90;43.80;;;;;;5992052;29;20037;-73
2022/08/23 02:34:47;;;;;;;2.30;1.17;;;24.90;43.80;;;;;;6010770;29;20045;-73
2022/08/23 02:37:48;;;;;;;3.22;1.10;;;24.80;43.90;;;;;;6010212;29;20116;-75
2022/08/23 02:40:49;;;;;;;2.65;1.00;;;24.90;44.30;;;;;;5994693;29;20035;-73
2022/08/23 02:43:52;;;;;;;3.05;1.27;;;24.80;45.20;;;;;;5990566;29;20046;-73
2022/08/23 02:46:53;;;;;;;1.75;1.00;;;24.80;44.90;;;;;;5993188;29;20046;-73
2022/08/23 02:49:54;;;;;;;1.70;0.80;;;24.80;45.30;;;;;;5983398;29;20053;-73
2022/08/23 02:52:57;;;;;;;3.25;0.98;;;24.70;45.60;;;;;;5989667;29;20102;-73
2022/08/23 02:55:59;;;;;;;3.45;0.82;;;24.70;45.80;;;;;;5978665;29;20042;-73
2022/08/23 02:59:00;;;;;;;5.85;1.30;;;24.70;46.10;;;;;;6009299;29;20126;-73
2022/08/23 03:02:01;;;;;;;1.05;0.75;;;24.60;46.20;;;;;;5984494;29;20155;-73
2022/08/23 03:05:09;;;;;;;2.35;1.30;;;24.60;46.30;;;;;;6001311;29;20446;-73
2022/08/23 03:08:10;;;;;;;2.28;0.80;;;24.50;46.40;;;;;;6007849;29;20472;-72
2022/08/23 03:11:21;;;;;;;1.33;0.80;;;24.50;46.50;;;;;;5989189;29;20099;-73
2022/08/23 03:14:26;;;;;;;4.38;1.27;;;24.50;46.60;;;;;;5978411;29;20046;-73
2022/08/23 03:17:27;;;;;;;4.60;1.08;;;24.50;46.50;;;;;;5991181;29;20388;-73
2022/08/23 03:20:29;;;;;;;4.13;1.42;;;24.40;46.60;;;;;;5993670;29;20034;-73
2022/08/23 03:23:31;;;;;;;4.00;1.33;;;24.40;46.80;;;;;;5991144;29;20087;-73
2022/08/23 03:26:32;;;;;;;3.30;1.35;;;24.30;46.80;;;;;;6003868;29;20128;-73
2022/08/23 03:29:33;;;;;;;2.28;1.27;;;24.30;46.70;;;;;;6014101;29;20033;-73
2022/08/23 03:32:36;;;;;;;3.15;1.15;;;24.30;46.70;;;;;;6009028;29;20038;-73
2022/08/23 03:35:37;;;;;;;9.70;1.20;;;24.20;46.70;;;;;;5993176;29;20038;-72
2022/08/23 03:38:39;;;;;;;5.07;1.45;;;24.20;46.90;;;;;;6016573;29;20388;-73
2022/08/23 03:41:43;;;;;;;8.63;1.70;;;24.20;47.10;;;;;;6005654;29;20030;-73
2022/08/23 03:44:46;;;;;;;5.30;1.30;;;24.20;47.10;;;;;;6010290;29;20038;-72
2022/08/23 03:47:47;;;;;;;1.45;0.93;;;24.20;47.10;;;;;;6008440;29;20046;-72
2022/08/23 03:50:48;;;;;;;3.55;1.20;;;24.20;47.10;;;;;;6010213;29;20065;-73
2022/08/23 03:53:49;;;;;;;3.90;1.35;;;24.10;47.00;;;;;;6008787;29;20177;-73
2022/08/23 03:56:59;;;;;;;2.80;1.40;;;24.20;47.10;;;;;;6009601;29;20046;-72
2022/08/23 04:00:03;;;;;;;4.13;1.45;;;24.10;47.10;;;;;;6007926;29;20465;-72
2022/08/23 04:03:16;;;;;;;4.10;1.35;;;24.00;47.10;;;;;;6011102;29;20041;-73
2022/08/23 04:06:34;;;;;;;3.80;1.50;;;24.00;47.10;;;;;;6012368;29;20034;-73
2022/08/23 04:09:35;;;;;;;2.90;1.10;;;24.00;47.20;;;;;;5996687;29;20037;-72
2022/08/23 04:12:36;;;;;;;1.50;1.20;;;24.00;47.20;;;;;;6026350;29;20057;-72
2022/08/23 04:15:40;;;;;;;2.65;1.20;;;24.00;47.30;;;;;;6013456;29;20038;-74
2022/08/23 04:18:41;;;;;;;4.97;1.20;;;24.00;47.50;;;;;;6024983;29;20121;-74
2022/08/23 04:21:47;;;;;;;5.55;1.35;;;24.00;47.90;;;;;;6012056;29;20054;-73
2022/08/23 04:24:49;;;;;;;5.03;0.90;;;24.00;48.00;;;;;;6027863;29;20062;-73
2022/08/23 04:27:50;;;;;;;12.07;1.27;;;23.90;48.20;;;;;;6001279;29;20042;-73
2022/08/23 04:30:51;;;;;;;3.63;1.20;;;23.90;48.50;;;;;;5977316;29;20057;-73
2022/08/23 04:33:54;;;;;;;2.65;1.23;;;23.90;48.60;;;;;;5979103;29;20120;-73
2022/08/23 04:36:55;;;;;;;2.13;1.00;;;23.80;48.80;;;;;;5994609;29;20357;-73
2022/08/23 04:43:17;;;;;;;4.10;1.10;;;23.80;49.30;;;;;;5991050;29;20070;-73
2022/08/23 04:46:18;;;;;;;4.15;1.35;;;23.80;49.40;;;;;;6007334;29;20050;-73
2022/08/23 04:49:22;;;;;;;2.75;1.55;;;23.70;49.30;;;;;;5991322;29;20132;-73
2022/08/23 04:52:23;;;;;;;5.97;1.42;;;23.70;49.30;;;;;;6009659;29;20069;-74
2022/08/23 04:55:25;;;;;;;6.15;1.45;;;23.70;49.30;;;;;;5977666;29;20409;-74
2022/08/23 04:58:37;;;;;;;1.85;1.35;;;23.70;49.40;;;;;;5987661;29;20045;-73
2022/08/23 05:01:38;;;;;;;7.10;1.42;;;23.60;49.30;;;;;;6009644;29;20129;-74
2022/08/23 05:04:40;;;;;;;3.97;1.40;;;23.60;49.40;;;;;;6010227;29;20038;-73
2022/08/23 05:07:41;;;;;;;4.88;1.85;;;23.60;49.40;;;;;;5996627;29;20038;-74
2022/08/23 05:10:43;;;;;;;3.45;1.20;;;23.60;49.40;;;;;;6004389;29;20105;-74
2022/08/23 05:13:44;;;;;;;5.32;1.55;;;23.50;49.40;;;;;;6005039;29;20038;-73
2022/08/23 05:16:45;;;;;;;1.88;1.33;;;23.50;49.50;;;;;;6005098;29;20038;-73
2022/08/23 05:19:47;;;;;;;2.67;1.33;;;23.50;49.40;;;;;;6003698;29;20050;-74
2022/08/23 05:22:49;;;;;;;2.13;1.30;;;23.50;49.50;;;;;;5997531;29;20449;-74
2022/08/23 05:26:08;;;;;;;2.72;1.52;;;23.50;49.40;;;;;;6018792;29;20106;-74
2022/08/23 05:29:14;;;;;;;3.28;1.45;;;23.40;49.40;;;;;;6003586;29;20484;-74
2022/08/23 05:32:22;;;;;;;4.57;2.10;;;23.40;49.40;;;;;;5972897;29;20048;-74
2022/08/23 05:35:23;;;;;;;6.47;2.60;;;23.40;49.50;;;;;;5996580;29;20096;-74
2022/08/23 05:38:25;;;;;;;7.25;2.47;;;23.40;49.80;;;;;;6013498;29;20061;-74
2022/08/23 05:41:27;;;;;;;5.63;2.55;;;23.40;50.00;;;;;;5996368;29;20030;-74
2022/08/23 05:44:29;;;;;;;4.35;2.25;;;23.40;50.00;;;;;;5996790;29;20097;-74
2022/08/23 05:47:30;;;;;;;16.70;2.67;;;23.40;50.10;;;;;;5990695;29;20042;-75
2022/08/23 05:51:11;;;;;;;5.03;2.17;;;23.40;50.20;;;;;;5994042;29;20057;-75
2022/08/23 05:54:12;;;;;;;8.68;2.50;;;23.40;50.40;;;;;;5992986;29;20053;-73
2022/08/23 05:57:13;;;;;;;6.78;2.55;;;23.40;50.40;;;;;;6017223;29;20034;-74
2022/08/23 06:00:15;;;;;;;5.47;2.47;;;23.40;50.40;;;;;;5978748;29;20041;-73
2022/08/23 06:03:31;;;;;;;5.50;2.97;;;23.40;50.50;;;;;;5995546;29;20069;-73
2022/08/23 06:06:33;;;;;;;4.80;2.58;;;23.40;50.60;;;;;;6010136;29;20038;-73
2022/08/23 06:09:35;;;;;;;12.32;2.75;;;23.40;50.80;;;;;;5988771;29;20054;-74
2022/08/23 06:12:36;;;;;;;6.40;1.98;;;23.40;50.70;;;;;;5979488;29;20135;-73
2022/08/23 06:15:42;;;;;;;6.82;2.05;;;23.40;50.80;;;;;;5990303;29;20042;-75
2022/08/23 06:18:45;;;;;;;8.57;2.38;;;23.50;50.80;;;;;;6008279;29;20121;-73
2022/08/23 06:22:06;;;;;;;9.55;1.70;;;23.40;50.80;;;;;;6013857;29;20041;-74
2022/08/23 06:25:12;;;;;;;5.82;2.28;;;23.50;50.90;;;;;;6008577;29;20042;-74
2022/08/23 06:28:37;;;;;;;17.95;2.70;;;23.50;51.00;;;;;;5916605;30;20066;-74
2022/08/23 06:31:48;;;;;;;5.13;2.17;;;23.50;51.10;;;;;;5917032;30;20140;-73
2022/08/23 06:35:01;;;;;;;6.82;2.35;;;23.50;51.10;;;;;;5917619;30;20055;-74
2022/08/23 06:38:28;;;;;;;3.78;1.90;;;23.60;51.20;;;;;;5901317;30;20051;-73
2022/08/23 06:41:56;;;;;;;7.47;2.85;;;23.60;51.20;;;;;;5901509;30;20143;-74
2022/08/23 06:45:04;;;;;;;3.63;1.90;;;23.60;51.20;;;;;;5932195;30;20441;-75
2022/08/23 06:48:24;;;;;;;4.72;2.08;;;23.60;51.10;;;;;;5917049;30;20046;-74
2022/08/23 06:51:29;;;;;;;4.15;1.95;;;23.70;51.00;;;;;;5916590;30;20039;-74
2022/08/23 06:54:51;;;;;;;3.60;2.10;;;23.70;50.90;;;;;;5914893;30;20120;-74
2022/08/23 06:58:03;;;;;;;6.22;2.45;;;23.80;50.90;;;;;;5929702;30;20044;-75
2022/08/23 07:01:51;;;;;;;6.38;2.00;;;23.90;50.70;;;;;;5925735;30;20048;-74
2022/08/23 07:05:02;;;;;;;3.38;2.13;;;24.00;50.50;;;;;;5927738;29;20042;-74
2022/08/23 07:08:12;;;;;;;5.47;2.15;;;24.20;50.30;;;;;;5962820;29;20191;-75
2022/08/23 07:11:13;;;;;;;4.38;1.88;;;24.30;50.20;;;;;;5954046;29;20246;-75
2022/08/23 07:14:17;;;;;;;3.40;2.10;;;24.40;49.90;;;;;;5968666;29;20129;-74
2022/08/23 07:17:18;;;;;;;5.97;2.33;;;24.50;49.80;;;;;;5965508;29;20449;-73
2022/08/23 07:20:19;;;;;;;5.45;1.95;;;24.60;49.60;;;;;;5966267;29;20078;-74
2022/08/23 07:23:21;;;;;;;9.68;2.20;;;24.70;49.30;;;;;;5972765;29;20438;-74
2022/08/23 07:26:23;;;;;;;5.95;1.77;;;24.90;49.10;;;;;;5972251;29;20049;-74
2022/08/23 07:29:24;;;;;;;6.70;2.80;;;24.90;48.60;;;;;;6004439;29;20056;-74
2022/08/23 07:32:26;;;;;;;3.97;2.00;;;25.10;48.40;;;;;;5966613;29;20094;-74
2022/08/23 07:35:30;;;;;;;8.88;2.08;;;25.20;48.20;;;;;;5982000;29;20084;-74
2022/08/23 07:38:34;;;;;;;7.60;2.15;;;25.30;47.90;;;;;;5990016;29;20125;-74
2022/08/23 07:41:37;;;;;;;12.07;1.95;;;25.40;47.40;;;;;;6005544;29;20342;-75
2022/08/23 07:44:42;;;;;;;7.30;2.00;;;25.50;47.20;;;;;;6006081;29;20085;-73
2022/08/23 07:47:43;;;;;;;4.72;1.90;;;25.50;47.00;;;;;;6006571;29;20058;-72
2022/08/23 07:50:58;;;;;;;4.53;2.00;;;25.60;46.60;;;;;;6009208;29;20425;-74
2022/08/23 07:54:04;;;;;;;2.45;1.50;;;25.70;46.20;;;;;;5988881;29;20042;-74
2022/08/23 07:57:06;;;;;;;9.45;2.40;;;25.80;45.70;;;;;;6004142;29;20041;-75
2022/08/23 08:00:28;;;;;;;14.20;2.17;;;25.90;45.50;;;;;;6005570;29;20057;-74
2022/08/23 08:03:52;;;;;;;5.47;1.88;;;26.00;45.30;;;;;;6003953;29;20045;-74
2022/08/23 08:07:00;;;;;;;6.78;2.15;;;26.10;45.00;;;;;;6017528;29;20038;-74
2022/08/23 08:10:03;;;;;;;3.97;2.10;;;26.20;44.40;;;;;;6006089;29;20472;-75
2022/08/23 08:13:05;;;;;;;4.20;1.85;;;26.30;44.30;;;;;;6002512;29;20042;-74
2022/08/23 08:16:07;;;;;;;4.20;1.90;;;26.30;44.00;;;;;;6007259;29;20038;-74
2022/08/23 08:19:16;;;;;;;8.15;1.90;;;26.50;43.60;;;;;;6006265;29;20468;-75
2022/08/23 08:22:36;;;;;;;4.05;1.63;;;26.60;42.90;;;;;;6001185;29;20409;-74
2022/08/23 08:25:43;;;;;;;4.15;1.95;;;26.70;42.70;;;;;;6011067;29;20053;-74
2022/08/23 08:28:48;;;;;;;5.82;1.83;;;26.90;42.40;;;;;;5974089;29;20053;-73
2022/08/23 08:31:50;;;;;;;4.88;1.85;;;27.00;42.00;;;;;;5990249;29;20061;-74
2022/08/23 08:34:51;;;;;;;3.28;1.77;;;27.00;42.30;;;;;;5989450;29;20075;-74
2022/08/23 08:37:52;;;;;;;2.60;1.92;;;27.20;41.60;;;;;;6005936;29;20089;-74
2022/08/23 08:41:04;;;;;;;5.72;2.35;;;27.30;41.60;;;;;;5985716;29;20038;-74
2022/08/23 08:44:14;;;;;;;5.85;2.40;;;27.30;41.50;;;;;;5987309;29;20048;-73
2022/08/23 08:47:32;;;;;;;5.10;1.90;;;27.40;41.30;;;;;;5997359;29;20050;-74
2022/08/23 08:50:40;;;;;;;3.78;1.90;;;27.50;41.10;;;;;;5974426;29;20042;-74
2022/08/23 08:53:47;;;;;;;5.38;1.90;;;27.50;41.00;;;;;;5990429;29;20117;-75
2022/08/23 08:56:54;;;;;;;3.92;1.98;;;27.50;40.90;;;;;;5997536;29;20392;-73
2022/08/23 09:00:13;;;;;;;4.82;2.17;;;27.70;40.90;;;;;;6006646;29;20045;-73
2022/08/23 09:03:19;;;;;;;3.08;1.70;;;27.70;40.80;;;;;;5991191;29;20068;-74
2022/08/23 09:06:34;;;;;;;3.03;1.80;;;27.80;40.70;;;;;;5980573;29;20167;-74
2022/08/23 09:09:55;;;;;;;9.95;2.08;;;27.90;40.60;;;;;;5992776;29;20077;-74
2022/08/23 09:13:09;;;;;;;3.97;1.77;;;28.10;40.60;;;;;;6007826;29;20049;-74
2022/08/23 09:16:35;;;;;;;7.25;1.65;;;28.20;40.50;;;;;;5990977;29;20045;-74
2022/08/23 09:19:38;;;;;;;7.30;2.40;;;28.20;40.30;;;;;;6003846;29;20042;-74
2022/08/23 09:22:46;;;;;;;4.53;1.92;;;28.20;40.20;;;;;;5997567;29;20036;-73
2022/08/23 09:26:00;;;;;;;4.03;1.70;;;28.30;40.20;;;;;;6003978;29;20053;-73
2022/08/23 09:29:27;;;;;;;4.07;1.70;;;28.40;40.10;;;;;;6010144;29;20038;-73
2022/08/23 09:32:36;;;;;;;4.28;1.80;;;28.50;39.90;;;;;;6010038;29;20049;-74
2022/08/23 09:35:42;;;;;;;4.30;1.80;;;28.50;39.60;;;;;;6005456;29;20139;-74
2022/08/23 09:39:25;;;;;;;6.07;2.22;;;28.60;39.40;;;;;;6010326;29;20102;-75
2022/08/23 09:42:38;;;;;;;4.90;2.38;;;28.60;39.40;;;;;;5918131;29;20044;-75
2022/08/23 09:45:49;;;;;;;4.43;1.88;;;28.70;39.20;;;;;;5922835;29;20035;-73
2022/08/23 09:48:54;;;;;;;5.43;2.00;;;28.80;39.00;;;;;;5939232;29;20126;-74
2022/08/23 09:52:11;;;;;;;9.35;2.03;;;28.80;38.60;;;;;;5930764;29;20039;-73
2022/08/23 09:55:35;;;;;;;3.45;1.77;;;28.90;38.50;;;;;;5941754;29;20051;-74
2022/08/23 09:58:40;;;;;;;4.07;2.10;;;29.00;38.40;;;;;;5882329;30;20056;-72
2022/08/23 10:01:48;;;;;;;4.13;1.67;;;29.10;38.30;;;;;;5900459;30;20162;-74
2022/08/23 10:05:02;;;;;;;6.93;2.20;;;29.10;38.00;;;;;;5884808;30;20044;-75
2022/08/23 10:08:05;;;;;;;4.75;1.80;;;29.20;37.80;;;;;;5887267;30;20044;-74
2022/08/23 10:11:27;;;;;;;4.05;1.80;;;29.30;37.70;;;;;;5881893;30;20086;-74
2022/08/23 10:14:31;;;;;;;6.00;1.70;;;29.30;37.60;;;;;;5963889;29;20047;-74
2022/08/23 10:18:02;;;;;;;11.75;2.10;;;29.30;37.30;;;;;;5947407;29;20112;-75
2022/08/23 10:21:22;;;;;;;4.00;1.67;;;29.30;37.10;;;;;;5959024;29;20115;-74
2022/08/23 10:24:45;;;;;;;4.63;1.85;;;29.40;37.10;;;;;;5959635;29;20053;-75
2022/08/23 10:31:42;;;;;;;5.07;1.80;;;29.60;36.90;;;;;;5959640;29;20201;-74
2022/08/23 10:35:25;;;;;;;4.60;1.88;;;29.60;36.80;;;;;;5957474;29;20460;-75
2022/08/23 10:38:57;;;;;;;4.65;1.88;;;29.70;36.60;;;;;;5876649;30;20036;-72
2022/08/23 10:42:10;;;;;;;6.47;1.70;;;29.70;36.40;;;;;;5891939;30;20471;-74
2022/08/23 10:45:18;;;;;;;3.90;1.58;;;29.70;36.40;;;;;;5893791;30;20056;-74
2022/08/23 10:48:28;;;;;;;5.93;2.25;;;29.80;36.30;;;;;;5879517;30;20059;-75
2022/08/23 10:51:46;;;;;;;4.93;1.45;;;30.00;36.30;;;;;;5880111;30;20081;-75
2022/08/23 10:55:05;;;;;;;4.38;1.70;;;30.30;35.90;;;;;;5894591;30;20181;-75
2022/08/23 10:58:21;;;;;;;6.03;1.60;;;30.70;34.70;;;;;;5895126;30;20040;-73
2022/08/23 11:01:44;;;;;;;5.78;1.65;;;31.10;34.20;;;;;;5892712;30;20055;-75
2022/08/23 11:04:49;;;;;;;1.83;1.27;;;31.50;34.00;;;;;;5891457;30;20123;-75
2022/08/23 11:08:30;;;;;;;4.15;1.80;;;31.80;33.60;;;;;;5892243;30;20391;-75
2022/08/23 11:11:43;;;;;;;5.90;1.67;;;32.20;33.20;;;;;;5878313;30;20156;-73
2022/08/23 11:14:58;;;;;;;3.15;2.13;;;32.50;32.60;;;;;;5965613;29;20053;-76
2022/08/23 11:18:07;;;;;;;3.35;1.30;;;32.60;32.00;;;;;;6005799;29;20038;-76
2022/08/23 11:21:41;;;;;;;3.63;2.00;;;32.80;31.50;;;;;;6005099;29;20156;-74
2022/08/23 11:24:54;;;;;;;2.67;1.65;;;33.00;31.10;;;;;;5991178;29;20046;-75
2022/08/23 11:28:24;;;;;;;3.45;2.60;;;33.30;30.80;;;;;;5982396;29;20053;-75
2022/08/23 11:31:39;;;;;;;2.72;1.60;;;33.50;30.20;;;;;;6003470;29;20102;-75
2022/08/23 11:34:50;;;;;;;3.65;1.83;;;33.80;30.10;;;;;;6000529;29;20119;-75
2022/08/23 11:38:00;;;;;;;2.83;1.40;;;34.10;30.10;;;;;;6000977;29;20041;-75
2022/08/23 11:41:52;;;;;;;8.32;2.10;;;34.40;30.00;;;;;;5984718;29;20041;-75
2022/08/23 11:44:54;;;;;;;2.40;1.70;;;34.60;30.50;;;;;;5964599;29;20126;-76
2022/08/23 11:48:10;;;;;;;1.75;1.52;;;34.80;29.60;;;;;;5990672;29;20049;-74
2022/08/23 11:51:22;;;;;;;5.68;1.50;;;34.90;29.50;;;;;;6005588;29;20136;-75
2022/08/23 11:54:35;;;;;;;2.35;1.38;;;35.10;29.40;;;;;;5971732;29;20120;-75
2022/08/23 11:58:24;;;;;;;2.10;1.50;;;35.40;29.00;;;;;;5998263;29;20034;-75
2022/08/23 12:01:37;;;;;;;4.00;1.50;;;35.80;28.50;;;;;;5919392;30;20050;-75
2022/08/23 12:04:48;;;;;;;3.58;1.63;;;36.20;27.80;;;;;;5916637;30;20062;-75
2022/08/23 12:08:01;;;;;;;4.18;2.00;;;36.40;27.30;;;;;;5897248;30;20076;-75
2022/08/23 12:11:06;;;;;;;2.85;1.40;;;36.60;26.80;;;;;;5903403;30;20253;-74
2022/08/23 12:14:41;;;;;;;3.10;1.67;;;36.80;26.40;;;;;;5917542;30;20314;-74
2022/08/23 12:17:44;;;;;;;2.40;1.45;;;37.00;26.00;;;;;;5912464;30;20185;-74
2022/08/23 12:20:46;;;;;;;2.97;1.50;;;37.40;25.50;;;;;;5917214;30;20059;-74
2022/08/23 12:23:52;;;;;;;2.13;1.35;;;37.60;25.20;;;;;;5915727;30;20463;-75
2022/08/23 12:27:06;;;;;;;2.05;1.40;;;37.90;24.90;;;;;;5922755;30;20087;-75
2022/08/23 12:30:22;;;;;;;2.42;1.42;;;38.40;24.40;;;;;;5938406;29;20538;-75
2022/08/23 12:33:51;;;;;;;4.75;1.63;;;38.70;23.80;;;;;;5922219;29;20397;-75
2022/08/23 12:37:11;;;;;;;1.95;1.08;;;38.90;23.70;;;;;;5942948;29;20049;-75
2022/08/23 12:40:34;;;;;;;2.28;1.30;;;39.10;23.30;;;;;;5999083;29;20568;-75
2022/08/23 12:43:36;;;;;;;2.47;1.35;;;39.30;23.20;;;;;;6004231;29;20026;-74
2022/08/23 12:46:41;;;;;;;4.72;1.75;;;39.50;22.80;;;;;;6005218;29;20145;-74
2022/08/23 12:49:52;;;;;;;2.42;1.45;;;39.70;22.50;;;;;;6013482;29;20037;-73
2022/08/23 12:53:03;;;;;;;3.75;1.55;;;39.90;22.40;;;;;;6011968;29;20040;-74
2022/08/23 12:56:24;;;;;;;5.30;1.60;;;40.20;22.10;;;;;;5997592;29;20034;-74
2022/08/23 12:59:36;;;;;;;1.52;1.30;;;40.50;21.90;;;;;;6013119;29;20033;-76
2022/08/23 13:02:37;;;;;;;2.80;1.90;;;40.80;21.70;;;;;;6010623;29;20065;-74
2022/08/23 13:06:01;;;;;;;3.75;1.40;;;41.10;21.40;;;;;;6012186;29;20034;-75
2022/08/23 13:09:08;;;;;;;4.75;1.73;;;41.50;21.00;;;;;;6007555;29;20074;-76
2022/08/23 13:12:10;;;;;;;;;;;41.80;20.70;;;;;;6009868;29;20049;-75
2022/08/23 13:15:11;;;;;;;9.20;1.75;;;42.00;20.60;;;;;;6002419;29;19984;-75
2022/08/23 13:18:30;;;;;;;5.57;1.63;;;42.30;20.40;;;;;;5993424;29;20046;-74
2022/08/23 13:21:31;;;;;;;2.83;1.42;;;42.60;20.20;;;;;;6003851;29;20042;-74
2022/08/23 13:24:34;;;;;;;2.85;1.25;;;43.10;19.80;;;;;;6011537;29;20506;-75
2022/08/23 13:27:45;;;;;;;1.67;1.38;;;43.20;19.60;;;;;;5979153;29;20038;-73
2022/08/23 13:31:02;;;;;;;4.20;2.22;;;43.30;19.60;;;;;;6011542;29;20042;-75
2022/08/23 13:34:03;;;;;;;1.33;1.23;;;43.30;19.40;;;;;;5995332;29;20111;-74
2022/08/23 13:37:14;;;;;;;2.17;1.40;;;43.50;19.30;;;;;;5995604;29;20061;-75
2022/08/23 13:40:24;;;;;;;4.15;1.60;;;43.90;19.00;;;;;;5995262;29;20046;-74
2022/08/23 13:43:47;;;;;;;2.00;1.48;;;44.10;18.80;;;;;;5995934;29;20041;-75
2022/08/23 13:46:48;;;;;;;3.75;1.85;;;44.10;18.70;;;;;;6009398;29;20053;-74
2022/08/23 13:49:50;;;;;;;3.15;1.30;;;44.70;18.60;;;;;;5995279;29;20050;-73
2022/08/23 13:52:52;;;;;;;2.13;1.40;;;45.20;18.20;;;;;;6010957;29;20483;-74
2022/08/23 13:55:58;;;;;;;3.05;1.45;;;45.40;17.90;;;;;;6010635;29;20045;-76
2022/08/23 13:59:02;;;;;;;7.25;1.67;;;45.40;17.70;;;;;;5994134;29;20330;-74
2022/08/23 14:02:15;;;;;;;1.58;1.40;;;45.40;17.70;;;;;;5989466;29;20531;-74
2022/08/23 14:05:21;;;;;;;3.88;1.50;;;45.60;17.50;;;;;;5992630;29;20038;-74
2022/08/23 14:08:22;;;;;;;5.72;1.75;;;45.50;17.50;;;;;;5990622;29;20053;-74
2022/08/23 14:11:23;;;;;;;1.17;1.02;;;45.60;17.40;;;;;;5994536;29;20527;-74
2022/08/23 14:14:26;;;;;;;2.92;1.58;;;45.90;17.10;;;;;;6007248;29;20333;-74
2022/08/23 14:17:30;;;;;;;4.20;1.85;;;45.70;17.00;;;;;;5995168;29;20038;-74
2022/08/23 14:20:31;;;;;;;5.30;1.40;;;45.40;17.10;;;;;;6008610;29;20113;-74
2022/08/23 14:23:32;;;;;;;1.48;1.38;;;44.60;17.60;;;;;;6014403;29;20045;-74
2022/08/23 14:26:34;;;;;;;3.83;1.30;;;43.40;18.30;;;;;;5988241;29;20183;-75
2022/08/23 14:29:35;;;;;;;2.35;1.42;;;42.10;18.90;;;;;;6008300;29;20052;-74
2022/08/23 14:32:39;;;;;;;2.05;1.58;;;40.90;19.80;;;;;;6013444;29;20049;-73
2022/08/23 14:35:40;;;;;;;1.90;1.40;;;39.90;20.40;;;;;;6008475;29;20177;-74
2022/08/23 14:38:42;;;;;;;3.13;1.35;;;39.10;21.10;;;;;;5992322;29;20045;-75
2022/08/23 14:41:43;;;;;;;2.15;1.58;;;38.40;21.60;;;;;;6008379;29;20475;-74
2022/08/23 14:44:44;;;;;;;2.28;1.40;;;37.70;22.20;;;;;;5995560;29;20103;-74
2022/08/23 14:47:46;;;;;;;2.85;1.55;;;37.10;22.70;;;;;;6009190;29;20046;-74
2022/08/23 14:50:47;;;;;;;5.43;1.80;;;36.70;23.10;;;;;;6011163;29;20057;-74
2022/08/23 14:53:48;;;;;;;5.80;1.48;;;36.40;23.40;;;;;;6007258;29;20372;-74
2022/08/23 14:56:50;;;;;;;1.70;1.27;;;36.00;23.60;;;;;;6007863;29;20045;-74
2022/08/23 14:59:51;;;;;;;1.98;1.58;;;35.80;23.90;;;;;;6013097;29;20037;-74
2022/08/23 15:02:53;;;;;;;2.42;1.65;;;35.60;24.20;;;;;;6012300;29;20065;-74
2022/08/23 15:05:54;;;;;;;7.28;1.83;;;35.40;24.50;;;;;;6005364;29;20067;-74
2022/08/23 15:08:55;;;;;;;4.38;1.45;;;35.30;24.60;;;;;;6005824;29;20046;-74
2022/08/23 15:11:56;;;;;;;1.50;1.40;;;35.10;24.80;;;;;;6006594;29;20041;-75
2022/08/23 15:14:57;;;;;;;4.65;1.60;;;35.10;25.00;;;;;;6004809;29;20448;-74
2022/08/23 15:18:02;;;;;;;4.18;1.50;;;35.10;25.00;;;;;;6022301;29;20102;-74
2022/08/23 15:21:04;;;;;;;3.30;1.75;;;35.00;25.10;;;;;;6008234;29;20053;-73
2022/08/23 15:24:05;;;;;;;3.72;1.75;;;34.90;25.20;;;;;;6007965;29;20065;-74
2022/08/23 15:27:07;;;;;;;4.30;1.60;;;34.80;25.40;;;;;;6007800;29;20133;-73
2022/08/23 15:30:10;;;;;;;3.90;1.58;;;34.80;25.60;;;;;;5988719;29;20046;-75
2022/08/23 15:33:11;;;;;;;5.60;1.63;;;34.70;25.70;;;;;;5992542;29;20064;-75
2022/08/23 15:36:14;;;;;;;3.33;1.35;;;34.70;25.80;;;;;;6005241;29;20038;-74
2022/08/23 15:39:15;;;;;;;2.97;1.15;;;34.70;25.90;;;;;;6007546;29;20086;-74
2022/08/23 15:42:17;;;;;;;2.00;1.23;;;34.70;26.00;;;;;;5985526;29;20045;-74
2022/08/23 15:45:18;;;;;;;2.60;1.33;;;34.70;26.10;;;;;;6008555;29;20033;-74
2022/08/23 15:48:31;;;;;;;3.05;1.63;;;34.70;26.10;;;;;;5991791;29;20049;-73
2022/08/23 15:51:32;;;;;;;5.78;1.40;;;34.80;26.10;;;;;;5986353;29;20038;-75
2022/08/23 15:54:33;;;;;;;10.05;1.70;;;35.00;26.00;;;;;;6007823;29;20030;-75
2022/08/23 15:57:41;;;;;;;4.55;1.40;;;35.50;25.70;;;;;;6008600;29;20034;-74
2022/08/23 16:00:43;;;;;;;2.55;1.50;;;36.60;25.10;;;;;;6005742;29;20456;-74
2022/08/23 16:03:44;;;;;;;3.58;1.50;;;38.10;23.70;;;;;;5991082;29;20036;-75
2022/08/23 16:06:46;;;;;;;3.60;1.40;;;39.40;22.60;;;;;;6008054;29;20361;-75
2022/08/23 16:09:47;;;;;;;2.40;1.33;;;40.30;21.70;;;;;;5991103;29;20050;-74
2022/08/23 16:12:48;;;;;;;4.15;1.77;;;41.00;21.10;;;;;;5989308;29;20064;-74
2022/08/23 16:15:50;;;;;;;4.68;1.60;;;41.50;20.70;;;;;;6007015;29;20037;-74
2022/08/23 16:18:55;;;;;;;2.55;1.45;;;42.20;20.40;;;;;;5991023;29;20409;-74
2022/08/23 16:21:56;;;;;;;2.20;1.77;;;42.70;19.90;;;;;;5996858;29;20065;-74
2022/08/23 16:24:59;;;;;;;2.45;1.42;;;43.00;19.50;;;;;;5999985;29;20365;-74
2022/08/23 16:28:00;;;;;;;2.80;1.70;;;43.00;19.30;;;;;;5991943;29;20073;-73
2022/08/23 16:31:02;;;;;;;3.33;1.48;;;42.70;19.40;;;;;;5975793;29;20093;-73
2022/08/23 16:34:03;;;;;;;1.73;1.30;;;42.30;19.70;;;;;;6007495;29;20038;-74